Union, KY (41091)

2:34 PM EST on February 09, 2016 (GMT -0500)
Redstone Village | | Change Station
CLOSE
Current Station
Personal Weather Station
Location: Union, KY
Elevation: 860 ft
Nearby Weather Stations

Elev 860 ft 38.93 °N, 84.69 °W | Updated 4 minutes ago

Overcast
Overcast
24.0 °F
Feels Like 17 °F
N
6.0
Wind Variable Wind from NW
Gusts 11.0 mph

Today
High -- | Low -- °F
--% Chance of Precip.
Yesterday
High -- | Low -- °F
Precip. -- in
Pressure 29.76 in
Visibility 4.0 miles
Clouds Mostly Cloudy 1800 ft
Overcast 2600 ft
Windchill 17 °F
Dew Point 19 °F
Humidity 81%
Rainfall 0.00 in
Snow Depth Not available.
7:37 AM 6:08 PM
New Moon, 2% visible
SPECI KCVG 091915Z 27012KT 4SM -SN BKN018 OVC026 M04/M08 A2976 RMK AO2 P0000
Pressure 29.76 in
Visibility 4.0 miles
Clouds Mostly Cloudy 1800 ft
Overcast 2600 ft
Windchill 17 °F
Dew Point 19 °F
Humidity 81%
Rainfall 0.00 in
Snow Depth Not available.
7:37 AM 6:08 PM
New Moon, 2% visible
SPECI KCVG 091915Z 27012KT 4SM -SN BKN018 OVC026 M04/M08 A2976 RMK AO2 P0000

10-Day Weather Forecast

Almanac

Astronomy

Feb. 09, 2016 Rise Set
Actual Time
Civil Twilight
Nautical Twilight
Astronomical Twilight
Moon
Length of Visible Light
Length of Day
Tomorrow will be .
, % of the Moon is Illuminated

Today's Extremes

State Highs State Lows

Community

WunderPhotos

Upload Photos

1,891,668 photos uploaded!

WunderBlog® & News

Nearby

Air Quality

  Air Quality AQ Index Pollutant
Not available.

Snow Depth

Station Depth Elevation

Earthquake Activity

City Distance Mag. Time & Date
Minimum magnitude displayed is 2.5.

Coastal Water Temperatures

Place Temperature

Stations

Nearby Weather Stations

Station Location Temp. Windchill Dew Point Humidity Wind Precip. Elev Updated Type
                   

Watches & Warnings

Winter Weather Advisory
Issued: 12:04 PM EST Feb. 9, 2016 – National Weather Service

... Winter Weather Advisory remains in effect until 6 am EST
Wednesday...

* hazard types... snow.

* Accumulations... snow accumulations of an inch or so are
expected.

* Timing... snow showers are expected this afternoon into Wednesday
morning... brining additional accumulations to the region.

* Impacts... travel difficulties are expected due to reduced
visibilities and snow accumulations.

Precautionary/preparedness actions...

Remember... a Winter Weather Advisory for snow means that periods
of snow will cause primarily travel difficulties. Be prepared for
snow covered roads and limited visibilities... and use caution
while driving. Stay tuned to NOAA Weather Radio or your favorite
source of information for the latest updates. Additional details
can also be found at www.Weather.Gov/iln as well as on our
facebook and twitter pages.